sensor_id;sensor_type;location;lat;lon;timestamp;P1;durP1;ratioP1;P2;durP2;ratioP2
12681;SDS011;6405;59.208;18.216;2022-09-09T00:09:47;0.73;;;0.50;;
12681;SDS011;6405;59.208;18.216;2022-09-09T00:12:17;0.40;;;0.40;;
12681;SDS011;6405;59.208;18.216;2022-09-09T00:14:53;0.30;;;0.30;;
12681;SDS011;6405;59.208;18.216;2022-09-09T00:17:45;2.73;;;0.30;;
12681;SDS011;6405;59.208;18.216;2022-09-09T00:23:12;0.30;;;0.30;;
12681;SDS011;6405;59.208;18.216;2022-09-09T00:25:58;0.30;;;0.30;;
12681;SDS011;6405;59.208;18.216;2022-09-09T00:28:25;1.03;;;0.50;;
12681;SDS011;6405;59.208;18.216;2022-09-09T00:30:56;0.50;;;0.40;;
12681;SDS011;6405;59.208;18.216;2022-09-09T00:33:27;0.50;;;0.30;;
12681;SDS011;6405;59.208;18.216;2022-09-09T00:35:57;0.80;;;0.40;;
12681;SDS011;6405;59.208;18.216;2022-09-09T00:38:28;0.40;;;0.33;;
12681;SDS011;6405;59.208;18.216;2022-09-09T00:41:06;0.47;;;0.47;;
12681;SDS011;6405;59.208;18.216;2022-09-09T00:44:03;0.40;;;0.40;;
12681;SDS011;6405;59.208;18.216;2022-09-09T00:50:02;0.60;;;0.40;;
12681;SDS011;6405;59.208;18.216;2022-09-09T00:52:47;0.60;;;0.40;;
12681;SDS011;6405;59.208;18.216;2022-09-09T00:58:10;0.60;;;0.60;;
12681;SDS011;6405;59.208;18.216;2022-09-09T01:01:10;1.10;;;0.60;;
12681;SDS011;6405;59.208;18.216;2022-09-09T01:03:48;2.87;;;0.60;;
12681;SDS011;6405;59.208;18.216;2022-09-09T01:06:39;0.60;;;0.50;;
12681;SDS011;6405;59.208;18.216;2022-09-09T01:12:07;1.23;;;0.50;;
12681;SDS011;6405;59.208;18.216;2022-09-09T01:27:44;1.27;;;0.50;;
12681;SDS011;6405;59.208;18.216;2022-09-09T01:30:16;3.23;;;0.57;;
12681;SDS011;6405;59.208;18.216;2022-09-09T01:32:54;0.60;;;0.50;;
12681;SDS011;6405;59.208;18.216;2022-09-09T01:37:56;0.73;;;0.50;;
12681;SDS011;6405;59.208;18.216;2022-09-09T01:40:23;0.90;;;0.60;;
12681;SDS011;6405;59.208;18.216;2022-09-09T01:42:50;0.57;;;0.50;;
12681;SDS011;6405;59.208;18.216;2022-09-09T01:45:18;0.93;;;0.53;;
12681;SDS011;6405;59.208;18.216;2022-09-09T01:47:44;1.30;;;0.53;;
12681;SDS011;6405;59.208;18.216;2022-09-09T01:50:12;0.90;;;0.60;;
12681;SDS011;6405;59.208;18.216;2022-09-09T01:52:42;1.90;;;0.60;;
12681;SDS011;6405;59.208;18.216;2022-09-09T01:55:11;0.90;;;0.50;;
12681;SDS011;6405;59.208;18.216;2022-09-09T01:57:43;1.27;;;0.60;;
12681;SDS011;6405;59.208;18.216;2022-09-09T02:00:20;0.80;;;0.60;;
12681;SDS011;6405;59.208;18.216;2022-09-09T02:02:50;0.40;;;0.40;;
12681;SDS011;6405;59.208;18.216;2022-09-09T02:05:45;0.63;;;0.50;;
12681;SDS011;6405;59.208;18.216;2022-09-09T02:08:26;2.00;;;0.80;;
12681;SDS011;6405;59.208;18.216;2022-09-09T02:11:14;0.50;;;0.50;;
12681;SDS011;6405;59.208;18.216;2022-09-09T02:13:47;1.50;;;0.80;;
12681;SDS011;6405;59.208;18.216;2022-09-09T02:19:10;1.93;;;0.50;;
12681;SDS011;6405;59.208;18.216;2022-09-09T02:21:49;2.07;;;0.60;;
12681;SDS011;6405;59.208;18.216;2022-09-09T02:24:17;1.10;;;0.53;;
12681;SDS011;6405;59.208;18.216;2022-09-09T02:26:44;0.97;;;0.50;;
12681;SDS011;6405;59.208;18.216;2022-09-09T02:29:15;0.63;;;0.40;;
12681;SDS011;6405;59.208;18.216;2022-09-09T02:31:47;0.90;;;0.47;;
12681;SDS011;6405;59.208;18.216;2022-09-09T02:34:17;0.83;;;0.60;;
12681;SDS011;6405;59.208;18.216;2022-09-09T02:36:46;1.20;;;0.50;;
12681;SDS011;6405;59.208;18.216;2022-09-09T02:39:14;1.33;;;0.80;;
12681;SDS011;6405;59.208;18.216;2022-09-09T02:41:41;0.57;;;0.50;;
12681;SDS011;6405;59.208;18.216;2022-09-09T02:44:11;2.13;;;0.60;;
12681;SDS011;6405;59.208;18.216;2022-09-09T02:49:40;0.70;;;0.50;;
12681;SDS011;6405;59.208;18.216;2022-09-09T02:53:11;1.60;;;0.63;;
12681;SDS011;6405;59.208;18.216;2022-09-09T02:58:26;0.60;;;0.47;;
12681;SDS011;6405;59.208;18.216;2022-09-09T03:00:52;1.37;;;0.60;;
12681;SDS011;6405;59.208;18.216;2022-09-09T03:03:19;1.87;;;0.60;;
12681;SDS011;6405;59.208;18.216;2022-09-09T03:05:47;0.67;;;0.50;;
12681;SDS011;6405;59.208;18.216;2022-09-09T03:08:14;1.17;;;0.60;;
12681;SDS011;6405;59.208;18.216;2022-09-09T03:10:41;1.57;;;0.50;;
12681;SDS011;6405;59.208;18.216;2022-09-09T03:13:08;1.73;;;0.60;;
12681;SDS011;6405;59.208;18.216;2022-09-09T03:15:35;1.50;;;0.47;;
12681;SDS011;6405;59.208;18.216;2022-09-09T03:18:01;1.83;;;0.50;;
12681;SDS011;6405;59.208;18.216;2022-09-09T03:20:28;0.50;;;0.47;;
12681;SDS011;6405;59.208;18.216;2022-09-09T03:22:55;1.90;;;0.60;;
12681;SDS011;6405;59.208;18.216;2022-09-09T03:25:22;3.63;;;0.70;;
12681;SDS011;6405;59.208;18.216;2022-09-09T03:27:49;1.30;;;0.50;;
12681;SDS011;6405;59.208;18.216;2022-09-09T03:30:21;0.73;;;0.40;;
12681;SDS011;6405;59.208;18.216;2022-09-09T03:32:48;2.83;;;0.50;;
12681;SDS011;6405;59.208;18.216;2022-09-09T03:35:15;1.93;;;0.47;;
12681;SDS011;6405;59.208;18.216;2022-09-09T03:37:41;1.30;;;0.60;;
12681;SDS011;6405;59.208;18.216;2022-09-09T03:40:09;1.03;;;0.50;;
12681;SDS011;6405;59.208;18.216;2022-09-09T03:42:37;1.27;;;1.07;;
12681;SDS011;6405;59.208;18.216;2022-09-09T03:45:05;0.53;;;0.53;;
12681;SDS011;6405;59.208;18.216;2022-09-09T03:47:34;1.07;;;0.70;;
12681;SDS011;6405;59.208;18.216;2022-09-09T03:50:00;0.93;;;0.70;;
12681;SDS011;6405;59.208;18.216;2022-09-09T03:52:25;0.70;;;0.70;;
12681;SDS011;6405;59.208;18.216;2022-09-09T03:54:52;0.77;;;0.60;;
12681;SDS011;6405;59.208;18.216;2022-09-09T03:57:19;1.00;;;0.80;;
12681;SDS011;6405;59.208;18.216;2022-09-09T03:59:46;2.20;;;0.60;;
12681;SDS011;6405;59.208;18.216;2022-09-09T04:02:12;0.63;;;0.60;;
12681;SDS011;6405;59.208;18.216;2022-09-09T04:04:41;0.70;;;0.50;;
12681;SDS011;6405;59.208;18.216;2022-09-09T04:07:07;2.17;;;0.50;;
12681;SDS011;6405;59.208;18.216;2022-09-09T04:09:35;3.90;;;0.93;;
12681;SDS011;6405;59.208;18.216;2022-09-09T04:12:02;1.10;;;0.40;;
12681;SDS011;6405;59.208;18.216;2022-09-09T04:14:30;2.73;;;0.90;;
12681;SDS011;6405;59.208;18.216;2022-09-09T04:16:57;1.00;;;0.60;;
12681;SDS011;6405;59.208;18.216;2022-09-09T04:19:26;0.47;;;0.40;;
12681;SDS011;6405;59.208;18.216;2022-09-09T04:21:53;0.50;;;0.40;;
12681;SDS011;6405;59.208;18.216;2022-09-09T04:24:18;0.53;;;0.50;;
12681;SDS011;6405;59.208;18.216;2022-09-09T04:26:46;1.07;;;0.67;;
12681;SDS011;6405;59.208;18.216;2022-09-09T04:29:12;2.63;;;0.50;;
12681;SDS011;6405;59.208;18.216;2022-09-09T04:31:39;1.30;;;0.50;;
12681;SDS011;6405;59.208;18.216;2022-09-09T04:34:08;0.43;;;0.40;;
12681;SDS011;6405;59.208;18.216;2022-09-09T04:36:35;1.13;;;0.73;;
12681;SDS011;6405;59.208;18.216;2022-09-09T04:39:03;0.53;;;0.40;;
12681;SDS011;6405;59.208;18.216;2022-09-09T04:41:30;2.37;;;0.60;;
12681;SDS011;6405;59.208;18.216;2022-09-09T04:43:57;1.80;;;0.40;;
12681;SDS011;6405;59.208;18.216;2022-09-09T04:46:24;0.70;;;0.40;;
12681;SDS011;6405;59.208;18.216;2022-09-09T04:48:52;2.17;;;0.40;;
12681;SDS011;6405;59.208;18.216;2022-09-09T04:51:19;0.63;;;0.50;;
12681;SDS011;6405;59.208;18.216;2022-09-09T04:53:45;0.70;;;0.50;;
12681;SDS011;6405;59.208;18.216;2022-09-09T04:56:16;0.63;;;0.50;;
12681;SDS011;6405;59.208;18.216;2022-09-09T04:58:43;1.13;;;0.50;;
12681;SDS011;6405;59.208;18.216;2022-09-09T05:03:44;0.63;;;0.43;;
12681;SDS011;6405;59.208;18.216;2022-09-09T05:06:12;1.10;;;0.43;;
12681;SDS011;6405;59.208;18.216;2022-09-09T05:08:41;1.83;;;0.60;;
12681;SDS011;6405;59.208;18.216;2022-09-09T05:11:16;1.90;;;0.30;;
12681;SDS011;6405;59.208;18.216;2022-09-09T05:13:44;0.30;;;0.30;;
12681;SDS011;6405;59.208;18.216;2022-09-09T05:16:12;1.23;;;0.40;;
12681;SDS011;6405;59.208;18.216;2022-09-09T05:18:40;2.20;;;0.50;;
12681;SDS011;6405;59.208;18.216;2022-09-09T05:21:09;0.87;;;0.50;;
12681;SDS011;6405;59.208;18.216;2022-09-09T05:23:36;2.00;;;0.57;;
12681;SDS011;6405;59.208;18.216;2022-09-09T05:26:04;2.10;;;0.87;;
12681;SDS011;6405;59.208;18.216;2022-09-09T05:28:33;1.50;;;0.60;;
12681;SDS011;6405;59.208;18.216;2022-09-09T05:31:04;1.10;;;0.40;;
12681;SDS011;6405;59.208;18.216;2022-09-09T05:33:35;1.27;;;0.40;;
12681;SDS011;6405;59.208;18.216;2022-09-09T05:36:05;2.40;;;0.60;;
12681;SDS011;6405;59.208;18.216;2022-09-09T05:38:35;0.50;;;0.50;;
12681;SDS011;6405;59.208;18.216;2022-09-09T05:41:03;0.50;;;0.43;;
12681;SDS011;6405;59.208;18.216;2022-09-09T05:43:29;0.60;;;0.47;;
12681;SDS011;6405;59.208;18.216;2022-09-09T05:46:00;1.50;;;0.50;;
12681;SDS011;6405;59.208;18.216;2022-09-09T05:48:32;0.53;;;0.40;;
12681;SDS011;6405;59.208;18.216;2022-09-09T05:51:00;0.97;;;0.60;;
12681;SDS011;6405;59.208;18.216;2022-09-09T05:53:28;1.80;;;0.50;;
12681;SDS011;6405;59.208;18.216;2022-09-09T05:56:05;3.03;;;0.80;;
12681;SDS011;6405;59.208;18.216;2022-09-09T05:58:38;1.40;;;0.30;;
12681;SDS011;6405;59.208;18.216;2022-09-09T06:01:07;0.83;;;0.43;;
12681;SDS011;6405;59.208;18.216;2022-09-09T06:03:36;1.23;;;0.60;;
12681;SDS011;6405;59.208;18.216;2022-09-09T06:06:04;1.17;;;0.70;;
12681;SDS011;6405;59.208;18.216;2022-09-09T06:08:35;0.67;;;0.50;;
12681;SDS011;6405;59.208;18.216;2022-09-09T06:11:04;1.53;;;0.53;;
12681;SDS011;6405;59.208;18.216;2022-09-09T06:13:34;1.03;;;0.50;;
12681;SDS011;6405;59.208;18.216;2022-09-09T06:16:04;2.10;;;0.50;;
12681;SDS011;6405;59.208;18.216;2022-09-09T06:18:32;1.80;;;0.50;;
12681;SDS011;6405;59.208;18.216;2022-09-09T06:20:59;0.90;;;0.50;;
12681;SDS011;6405;59.208;18.216;2022-09-09T06:23:27;2.40;;;0.50;;
12681;SDS011;6405;59.208;18.216;2022-09-09T06:26:07;0.73;;;0.50;;
12681;SDS011;6405;59.208;18.216;2022-09-09T06:28:38;3.23;;;0.60;;
12681;SDS011;6405;59.208;18.216;2022-09-09T06:31:08;0.80;;;0.47;;
12681;SDS011;6405;59.208;18.216;2022-09-09T06:33:38;2.40;;;0.57;;
12681;SDS011;6405;59.208;18.216;2022-09-09T06:36:11;1.07;;;0.40;;
12681;SDS011;6405;59.208;18.216;2022-09-09T06:38:41;0.50;;;0.43;;
12681;SDS011;6405;59.208;18.216;2022-09-09T06:41:09;3.47;;;0.50;;
12681;SDS011;6405;59.208;18.216;2022-09-09T06:43:38;1.37;;;0.50;;
12681;SDS011;6405;59.208;18.216;2022-09-09T06:46:15;1.23;;;0.50;;
12681;SDS011;6405;59.208;18.216;2022-09-09T06:48:44;1.93;;;0.70;;
12681;SDS011;6405;59.208;18.216;2022-09-09T06:51:14;0.83;;;0.50;;
12681;SDS011;6405;59.208;18.216;2022-09-09T06:53:43;1.10;;;0.60;;
12681;SDS011;6405;59.208;18.216;2022-09-09T06:56:31;0.93;;;0.50;;
12681;SDS011;6405;59.208;18.216;2022-09-09T06:59:01;2.10;;;0.57;;
12681;SDS011;6405;59.208;18.216;2022-09-09T07:01:32;1.37;;;0.40;;
12681;SDS011;6405;59.208;18.216;2022-09-09T07:04:01;1.10;;;0.43;;
12681;SDS011;6405;59.208;18.216;2022-09-09T07:06:33;1.77;;;0.43;;
12681;SDS011;6405;59.208;18.216;2022-09-09T07:09:03;0.83;;;0.50;;
12681;SDS011;6405;59.208;18.216;2022-09-09T07:11:33;1.13;;;0.40;;
12681;SDS011;6405;59.208;18.216;2022-09-09T07:14:03;0.87;;;0.47;;
12681;SDS011;6405;59.208;18.216;2022-09-09T07:16:30;1.47;;;0.40;;
12681;SDS011;6405;59.208;18.216;2022-09-09T07:18:59;1.13;;;0.57;;
12681;SDS011;6405;59.208;18.216;2022-09-09T07:21:27;0.67;;;0.57;;
12681;SDS011;6405;59.208;18.216;2022-09-09T07:23:55;1.33;;;0.50;;
12681;SDS011;6405;59.208;18.216;2022-09-09T07:26:23;2.93;;;0.60;;
12681;SDS011;6405;59.208;18.216;2022-09-09T07:28:53;0.60;;;0.50;;
12681;SDS011;6405;59.208;18.216;2022-09-09T07:31:21;3.90;;;0.90;;
12681;SDS011;6405;59.208;18.216;2022-09-09T07:33:53;0.50;;;0.30;;
12681;SDS011;6405;59.208;18.216;2022-09-09T07:36:22;1.37;;;0.50;;
12681;SDS011;6405;59.208;18.216;2022-09-09T07:38:53;1.80;;;0.50;;
12681;SDS011;6405;59.208;18.216;2022-09-09T07:41:25;1.67;;;0.57;;
12681;SDS011;6405;59.208;18.216;2022-09-09T07:44:04;1.13;;;0.60;;
12681;SDS011;6405;59.208;18.216;2022-09-09T07:46:33;2.13;;;0.50;;
12681;SDS011;6405;59.208;18.216;2022-09-09T07:49:02;1.80;;;0.40;;
12681;SDS011;6405;59.208;18.216;2022-09-09T07:51:30;1.07;;;0.57;;
12681;SDS011;6405;59.208;18.216;2022-09-09T07:54:02;1.13;;;0.50;;
12681;SDS011;6405;59.208;18.216;2022-09-09T07:56:32;1.10;;;0.50;;
12681;SDS011;6405;59.208;18.216;2022-09-09T07:58:59;1.33;;;0.40;;
12681;SDS011;6405;59.208;18.216;2022-09-09T08:01:30;1.33;;;0.47;;
12681;SDS011;6405;59.208;18.216;2022-09-09T08:04:20;1.83;;;0.60;;
12681;SDS011;6405;59.208;18.216;2022-09-09T08:06:49;3.03;;;0.70;;
12681;SDS011;6405;59.208;18.216;2022-09-09T08:09:23;0.60;;;0.30;;
12681;SDS011;6405;59.208;18.216;2022-09-09T08:11:54;1.20;;;0.40;;
12681;SDS011;6405;59.208;18.216;2022-09-09T08:14:22;2.27;;;0.63;;
12681;SDS011;6405;59.208;18.216;2022-09-09T08:16:50;0.70;;;0.50;;
12681;SDS011;6405;59.208;18.216;2022-09-09T08:19:18;1.90;;;1.00;;
12681;SDS011;6405;59.208;18.216;2022-09-09T08:21:45;2.03;;;0.43;;
12681;SDS011;6405;59.208;18.216;2022-09-09T08:24:12;0.67;;;0.40;;
12681;SDS011;6405;59.208;18.216;2022-09-09T08:26:44;0.93;;;0.47;;
12681;SDS011;6405;59.208;18.216;2022-09-09T08:29:16;0.87;;;0.50;;
12681;SDS011;6405;59.208;18.216;2022-09-09T08:31:44;1.27;;;0.60;;
12681;SDS011;6405;59.208;18.216;2022-09-09T08:34:19;1.97;;;0.60;;
12681;SDS011;6405;59.208;18.216;2022-09-09T08:36:47;0.50;;;0.50;;
12681;SDS011;6405;59.208;18.216;2022-09-09T08:39:17;1.30;;;0.60;;
12681;SDS011;6405;59.208;18.216;2022-09-09T08:47:11;0.90;;;0.60;;
12681;SDS011;6405;59.208;18.216;2022-09-09T08:55:47;1.40;;;0.80;;
12681;SDS011;6405;59.208;18.216;2022-09-09T08:58:28;2.20;;;0.60;;
12681;SDS011;6405;59.208;18.216;2022-09-09T09:09:06;0.77;;;0.37;;
12681;SDS011;6405;59.208;18.216;2022-09-09T09:11:49;1.93;;;0.73;;
12681;SDS011;6405;59.208;18.216;2022-09-09T09:14:24;1.60;;;0.50;;
12681;SDS011;6405;59.208;18.216;2022-09-09T09:19:33;0.50;;;0.50;;
12681;SDS011;6405;59.208;18.216;2022-09-09T09:22:21;1.73;;;0.50;;
12681;SDS011;6405;59.208;18.216;2022-09-09T09:24:56;2.53;;;0.60;;
12681;SDS011;6405;59.208;18.216;2022-09-09T09:30:05;0.57;;;0.57;;
12681;SDS011;6405;59.208;18.216;2022-09-09T09:32:40;1.53;;;0.70;;
12681;SDS011;6405;59.208;18.216;2022-09-09T09:35:16;1.60;;;0.73;;
12681;SDS011;6405;59.208;18.216;2022-09-09T09:37:43;3.47;;;0.53;;
12681;SDS011;6405;59.208;18.216;2022-09-09T09:40:16;1.17;;;0.60;;
12681;SDS011;6405;59.208;18.216;2022-09-09T09:42:48;0.97;;;0.60;;
12681;SDS011;6405;59.208;18.216;2022-09-09T09:45:41;0.77;;;0.50;;
12681;SDS011;6405;59.208;18.216;2022-09-09T09:48:11;1.40;;;0.80;;
12681;SDS011;6405;59.208;18.216;2022-09-09T09:50:58;0.90;;;0.50;;
12681;SDS011;6405;59.208;18.216;2022-09-09T09:53:29;0.87;;;0.40;;
12681;SDS011;6405;59.208;18.216;2022-09-09T09:55:59;1.10;;;0.50;;
12681;SDS011;6405;59.208;18.216;2022-09-09T09:58:31;0.50;;;0.50;;
12681;SDS011;6405;59.208;18.216;2022-09-09T10:01:03;1.13;;;0.60;;
12681;SDS011;6405;59.208;18.216;2022-09-09T10:03:32;1.27;;;0.70;;
12681;SDS011;6405;59.208;18.216;2022-09-09T10:06:04;3.03;;;0.70;;
12681;SDS011;6405;59.208;18.216;2022-09-09T10:08:33;1.10;;;0.50;;
12681;SDS011;6405;59.208;18.216;2022-09-09T10:19:33;1.33;;;0.57;;
12681;SDS011;6405;59.208;18.216;2022-09-09T10:30:27;1.43;;;0.60;;
12681;SDS011;6405;59.208;18.216;2022-09-09T10:33:09;0.70;;;0.63;;
12681;SDS011;6405;59.208;18.216;2022-09-09T10:38:24;1.23;;;0.80;;
12681;SDS011;6405;59.208;18.216;2022-09-09T10:46:46;1.77;;;0.60;;
12681;SDS011;6405;59.208;18.216;2022-09-09T10:55:16;2.97;;;0.60;;
12681;SDS011;6405;59.208;18.216;2022-09-09T10:57:47;1.47;;;0.50;;
12681;SDS011;6405;59.208;18.216;2022-09-09T11:03:06;2.87;;;0.70;;
12681;SDS011;6405;59.208;18.216;2022-09-09T11:05:53;1.10;;;0.60;;
12681;SDS011;6405;59.208;18.216;2022-09-09T11:08:34;1.50;;;0.63;;
12681;SDS011;6405;59.208;18.216;2022-09-09T11:19:36;0.57;;;0.57;;
12681;SDS011;6405;59.208;18.216;2022-09-09T11:22:20;0.87;;;0.67;;
12681;SDS011;6405;59.208;18.216;2022-09-09T11:32:59;1.07;;;0.70;;
12681;SDS011;6405;59.208;18.216;2022-09-09T11:38:26;1.77;;;0.63;;
12681;SDS011;6405;59.208;18.216;2022-09-09T11:41:04;2.17;;;0.90;;
12681;SDS011;6405;59.208;18.216;2022-09-09T11:43:33;1.23;;;0.70;;
12681;SDS011;6405;59.208;18.216;2022-09-09T11:46:10;1.53;;;1.10;;
12681;SDS011;6405;59.208;18.216;2022-09-09T11:48:42;1.83;;;0.80;;
12681;SDS011;6405;59.208;18.216;2022-09-09T11:54:00;0.93;;;0.77;;
12681;SDS011;6405;59.208;18.216;2022-09-09T11:56:32;2.07;;;0.90;;
12681;SDS011;6405;59.208;18.216;2022-09-09T11:59:49;1.93;;;0.73;;
12681;SDS011;6405;59.208;18.216;2022-09-09T12:10:26;1.77;;;0.80;;
12681;SDS011;6405;59.208;18.216;2022-09-09T12:12:55;1.03;;;0.70;;
12681;SDS011;6405;59.208;18.216;2022-09-09T12:15:34;0.60;;;0.60;;
12681;SDS011;6405;59.208;18.216;2022-09-09T12:18:00;0.97;;;0.87;;
12681;SDS011;6405;59.208;18.216;2022-09-09T12:28:27;1.43;;;1.00;;
12681;SDS011;6405;59.208;18.216;2022-09-09T12:33:51;2.20;;;0.87;;
12681;SDS011;6405;59.208;18.216;2022-09-09T12:36:29;1.57;;;0.90;;
12681;SDS011;6405;59.208;18.216;2022-09-09T12:38:59;3.23;;;0.93;;
12681;SDS011;6405;59.208;18.216;2022-09-09T12:41:50;1.20;;;0.90;;
12681;SDS011;6405;59.208;18.216;2022-09-09T12:44:23;1.40;;;1.00;;
12681;SDS011;6405;59.208;18.216;2022-09-09T12:46:51;3.70;;;1.03;;
12681;SDS011;6405;59.208;18.216;2022-09-09T12:49:26;0.80;;;0.80;;
12681;SDS011;6405;59.208;18.216;2022-09-09T12:51:58;1.87;;;0.77;;
12681;SDS011;6405;59.208;18.216;2022-09-09T12:54:26;1.67;;;0.90;;
12681;SDS011;6405;59.208;18.216;2022-09-09T12:56:53;2.80;;;0.90;;
12681;SDS011;6405;59.208;18.216;2022-09-09T12:59:34;0.60;;;0.60;;
12681;SDS011;6405;59.208;18.216;2022-09-09T13:02:11;0.80;;;0.80;;
12681;SDS011;6405;59.208;18.216;2022-09-09T13:04:46;2.57;;;0.97;;
12681;SDS011;6405;59.208;18.216;2022-09-09T13:07:13;1.67;;;1.03;;
12681;SDS011;6405;59.208;18.216;2022-09-09T13:09:43;2.17;;;0.90;;
12681;SDS011;6405;59.208;18.216;2022-09-09T13:12:13;5.63;;;1.10;;
12681;SDS011;6405;59.208;18.216;2022-09-09T13:14:49;1.90;;;0.80;;
12681;SDS011;6405;59.208;18.216;2022-09-09T13:17:21;2.03;;;0.90;;
12681;SDS011;6405;59.208;18.216;2022-09-09T13:19:48;1.10;;;1.00;;
12681;SDS011;6405;59.208;18.216;2022-09-09T13:25:18;2.23;;;0.73;;
12681;SDS011;6405;59.208;18.216;2022-09-09T13:27:53;1.03;;;0.70;;
12681;SDS011;6405;59.208;18.216;2022-09-09T13:30:29;1.23;;;0.70;;
12681;SDS011;6405;59.208;18.216;2022-09-09T13:32:59;1.00;;;0.80;;
12681;SDS011;6405;59.208;18.216;2022-09-09T13:35:35;2.10;;;0.80;;
12681;SDS011;6405;59.208;18.216;2022-09-09T13:38:14;4.60;;;0.73;;
12681;SDS011;6405;59.208;18.216;2022-09-09T13:40:52;1.43;;;0.90;;
12681;SDS011;6405;59.208;18.216;2022-09-09T13:43:25;1.23;;;0.60;;
12681;SDS011;6405;59.208;18.216;2022-09-09T13:45:56;2.03;;;0.70;;
12681;SDS011;6405;59.208;18.216;2022-09-09T13:48:31;1.23;;;0.87;;
12681;SDS011;6405;59.208;18.216;2022-09-09T13:50:59;1.27;;;0.70;;
12681;SDS011;6405;59.208;18.216;2022-09-09T13:53:28;2.20;;;0.90;;
12681;SDS011;6405;59.208;18.216;2022-09-09T13:55:57;1.60;;;0.80;;
12681;SDS011;6405;59.208;18.216;2022-09-09T13:58:24;1.07;;;0.80;;
12681;SDS011;6405;59.208;18.216;2022-09-09T14:00:52;0.80;;;0.80;;
12681;SDS011;6405;59.208;18.216;2022-09-09T14:03:19;1.23;;;0.63;;
12681;SDS011;6405;59.208;18.216;2022-09-09T14:05:47;1.70;;;0.83;;
12681;SDS011;6405;59.208;18.216;2022-09-09T14:08:21;0.73;;;0.70;;
12681;SDS011;6405;59.208;18.216;2022-09-09T14:10:51;0.70;;;0.70;;
12681;SDS011;6405;59.208;18.216;2022-09-09T14:13:17;1.23;;;0.90;;
12681;SDS011;6405;59.208;18.216;2022-09-09T14:15:43;1.50;;;0.70;;
12681;SDS011;6405;59.208;18.216;2022-09-09T14:18:12;1.00;;;0.80;;
12681;SDS011;6405;59.208;18.216;2022-09-09T14:20:40;3.63;;;0.80;;
12681;SDS011;6405;59.208;18.216;2022-09-09T14:23:09;2.80;;;1.20;;
12681;SDS011;6405;59.208;18.216;2022-09-09T14:25:39;0.87;;;0.80;;
12681;SDS011;6405;59.208;18.216;2022-09-09T14:28:07;2.30;;;0.70;;
12681;SDS011;6405;59.208;18.216;2022-09-09T14:30:36;1.07;;;0.83;;
12681;SDS011;6405;59.208;18.216;2022-09-09T14:33:04;2.20;;;0.83;;
12681;SDS011;6405;59.208;18.216;2022-09-09T14:35:31;1.43;;;0.90;;
12681;SDS011;6405;59.208;18.216;2022-09-09T14:37:59;1.63;;;0.80;;
12681;SDS011;6405;59.208;18.216;2022-09-09T14:40:27;0.90;;;0.80;;
12681;SDS011;6405;59.208;18.216;2022-09-09T14:42:54;0.93;;;0.70;;
12681;SDS011;6405;59.208;18.216;2022-09-09T14:45:22;2.40;;;1.00;;
12681;SDS011;6405;59.208;18.216;2022-09-09T14:47:50;1.70;;;0.87;;
12681;SDS011;6405;59.208;18.216;2022-09-09T14:50:17;1.03;;;0.87;;
12681;SDS011;6405;59.208;18.216;2022-09-09T14:52:47;1.03;;;0.70;;
12681;SDS011;6405;59.208;18.216;2022-09-09T14:55:14;1.47;;;1.00;;
12681;SDS011;6405;59.208;18.216;2022-09-09T14:57:40;1.90;;;0.90;;
12681;SDS011;6405;59.208;18.216;2022-09-09T15:00:08;2.23;;;0.73;;
12681;SDS011;6405;59.208;18.216;2022-09-09T15:02:35;1.20;;;0.90;;
12681;SDS011;6405;59.208;18.216;2022-09-09T15:05:02;0.87;;;0.80;;
12681;SDS011;6405;59.208;18.216;2022-09-09T15:07:29;1.57;;;0.80;;
12681;SDS011;6405;59.208;18.216;2022-09-09T15:09:59;2.87;;;1.00;;
12681;SDS011;6405;59.208;18.216;2022-09-09T15:12:26;1.40;;;0.90;;
12681;SDS011;6405;59.208;18.216;2022-09-09T15:14:54;0.83;;;0.70;;
12681;SDS011;6405;59.208;18.216;2022-09-09T15:17:20;1.53;;;1.13;;
12681;SDS011;6405;59.208;18.216;2022-09-09T15:19:47;1.10;;;0.80;;
12681;SDS011;6405;59.208;18.216;2022-09-09T15:22:16;1.87;;;1.07;;
12681;SDS011;6405;59.208;18.216;2022-09-09T15:24:43;1.13;;;0.90;;
12681;SDS011;6405;59.208;18.216;2022-09-09T15:27:10;1.73;;;0.70;;
12681;SDS011;6405;59.208;18.216;2022-09-09T15:29:36;1.63;;;1.03;;
12681;SDS011;6405;59.208;18.216;2022-09-09T15:32:04;0.80;;;0.80;;
12681;SDS011;6405;59.208;18.216;2022-09-09T15:34:31;0.93;;;0.80;;
12681;SDS011;6405;59.208;18.216;2022-09-09T15:36:58;2.90;;;1.10;;
12681;SDS011;6405;59.208;18.216;2022-09-09T15:39:26;1.63;;;0.70;;
12681;SDS011;6405;59.208;18.216;2022-09-09T15:41:54;0.87;;;0.73;;
12681;SDS011;6405;59.208;18.216;2022-09-09T15:44:20;1.03;;;0.90;;
12681;SDS011;6405;59.208;18.216;2022-09-09T15:46:50;1.23;;;0.90;;
12681;SDS011;6405;59.208;18.216;2022-09-09T15:49:22;3.33;;;0.90;;
12681;SDS011;6405;59.208;18.216;2022-09-09T15:51:54;1.80;;;0.90;;
12681;SDS011;6405;59.208;18.216;2022-09-09T15:54:24;1.13;;;0.90;;
12681;SDS011;6405;59.208;18.216;2022-09-09T15:56:53;3.47;;;0.90;;
12681;SDS011;6405;59.208;18.216;2022-09-09T15:59:25;2.40;;;0.73;;
12681;SDS011;6405;59.208;18.216;2022-09-09T16:01:53;1.13;;;0.80;;
12681;SDS011;6405;59.208;18.216;2022-09-09T16:04:21;1.63;;;1.03;;
12681;SDS011;6405;59.208;18.216;2022-09-09T16:06:52;1.30;;;0.80;;
12681;SDS011;6405;59.208;18.216;2022-09-09T16:09:21;1.97;;;0.90;;
12681;SDS011;6405;59.208;18.216;2022-09-09T16:11:48;1.83;;;1.20;;
12681;SDS011;6405;59.208;18.216;2022-09-09T16:14:14;2.40;;;1.10;;
12681;SDS011;6405;59.208;18.216;2022-09-09T16:16:41;1.87;;;0.90;;
12681;SDS011;6405;59.208;18.216;2022-09-09T16:19:09;1.10;;;0.90;;
12681;SDS011;6405;59.208;18.216;2022-09-09T16:21:40;2.10;;;0.93;;
12681;SDS011;6405;59.208;18.216;2022-09-09T16:24:10;2.07;;;0.83;;
12681;SDS011;6405;59.208;18.216;2022-09-09T16:26:39;1.93;;;0.87;;
12681;SDS011;6405;59.208;18.216;2022-09-09T16:29:11;4.57;;;1.43;;
12681;SDS011;6405;59.208;18.216;2022-09-09T16:31:39;4.93;;;2.60;;
12681;SDS011;6405;59.208;18.216;2022-09-09T16:34:07;1.80;;;1.00;;
12681;SDS011;6405;59.208;18.216;2022-09-09T16:36:36;1.40;;;1.20;;
12681;SDS011;6405;59.208;18.216;2022-09-09T16:39:09;7.93;;;1.53;;
12681;SDS011;6405;59.208;18.216;2022-09-09T16:41:41;2.47;;;1.20;;
12681;SDS011;6405;59.208;18.216;2022-09-09T16:44:11;1.83;;;1.37;;
12681;SDS011;6405;59.208;18.216;2022-09-09T16:46:39;1.47;;;1.20;;
12681;SDS011;6405;59.208;18.216;2022-09-09T16:49:09;1.93;;;1.10;;
12681;SDS011;6405;59.208;18.216;2022-09-09T16:51:38;3.53;;;1.07;;
12681;SDS011;6405;59.208;18.216;2022-09-09T16:54:08;1.30;;;0.90;;
12681;SDS011;6405;59.208;18.216;2022-09-09T16:56:37;3.03;;;0.90;;
12681;SDS011;6405;59.208;18.216;2022-09-09T16:59:09;1.53;;;0.93;;
12681;SDS011;6405;59.208;18.216;2022-09-09T17:01:38;3.00;;;1.00;;
12681;SDS011;6405;59.208;18.216;2022-09-09T17:04:11;1.87;;;1.00;;
12681;SDS011;6405;59.208;18.216;2022-09-09T17:06:50;2.27;;;1.33;;
12681;SDS011;6405;59.208;18.216;2022-09-09T17:09:18;2.43;;;1.07;;
12681;SDS011;6405;59.208;18.216;2022-09-09T17:11:45;1.47;;;0.90;;
12681;SDS011;6405;59.208;18.216;2022-09-09T17:14:15;3.13;;;0.90;;
12681;SDS011;6405;59.208;18.216;2022-09-09T17:16:43;2.10;;;1.20;;
12681;SDS011;6405;59.208;18.216;2022-09-09T17:19:11;1.03;;;0.93;;
12681;SDS011;6405;59.208;18.216;2022-09-09T17:21:39;0.80;;;0.80;;
12681;SDS011;6405;59.208;18.216;2022-09-09T17:24:05;5.43;;;1.40;;
12681;SDS011;6405;59.208;18.216;2022-09-09T17:26:34;2.37;;;0.90;;
12681;SDS011;6405;59.208;18.216;2022-09-09T17:29:02;3.67;;;1.50;;
12681;SDS011;6405;59.208;18.216;2022-09-09T17:31:29;2.10;;;0.97;;
12681;SDS011;6405;59.208;18.216;2022-09-09T17:33:58;1.47;;;1.10;;
12681;SDS011;6405;59.208;18.216;2022-09-09T17:36:27;1.23;;;0.97;;
12681;SDS011;6405;59.208;18.216;2022-09-09T17:38:56;1.30;;;1.00;;
12681;SDS011;6405;59.208;18.216;2022-09-09T17:41:24;1.50;;;1.00;;